Time,TemperatureF,DewpointF,PressureIn,WindDirection,WindDirectionDegrees,WindSpeedMPH,WindSpeedGustMPH,Humidity,HourlyPrecipIn,Conditions,Clouds,dailyrainin,SoftwareType,DateUTC
2013-07-04 00:00:00,64.5,64.2,27.55,ESE,106,1.1,8.0,99,0.00,--,--,0.00,awk and wget,2013-07-04 04:00:00,
2013-07-04 00:05:00,64.5,64.3,27.56,SSE,154,0.8,8.0,99,0.00,--,--,0.00,awk and wget,2013-07-04 04:05:00,
2013-07-04 00:10:00,64.3,64.1,27.56,NNE,12,2.7,7.2,99,0.00,--,--,0.00,awk and wget,2013-07-04 04:10:00,
2013-07-04 00:15:00,63.9,63.6,27.56,NNW,327,1.9,7.0,99,0.00,--,--,0.00,awk and wget,2013-07-04 04:15:00,
2013-07-04 00:20:00,63.9,63.7,27.55,NNW,327,2.7,6.8,99,0.00,--,--,0.00,awk and wget,2013-07-04 04:20:00,
2013-07-04 00:30:00,63.8,63.5,27.55,NNW,329,0.6,6.0,99,0.00,--,--,0.00,awk and wget,2013-07-04 04:30:00,
2013-07-04 00:35:00,63.9,63.7,27.55,NNW,331,1.4,5.3,99,0.00,--,--,0.00,awk and wget,2013-07-04 04:35:00,
2013-07-04 00:40:00,63.9,63.7,27.55,SE,132,0.5,5.3,99,0.00,--,--,0.00,awk and wget,2013-07-04 04:40:00,
2013-07-04 00:45:00,64.1,63.9,27.54,SE,132,1.1,5.3,99,0.00,--,--,0.00,awk and wget,2013-07-04 04:45:00,
2013-07-04 00:50:00,64.0,63.8,27.54,SE,132,0.1,5.2,99,0.00,--,--,0.00,awk and wget,2013-07-04 04:50:00,
2013-07-04 01:00:00,64.0,63.8,27.54,SE,132,0.1,4.0,99,0.00,--,--,0.00,awk and wget,2013-07-04 05:00:00,
2013-07-04 01:10:00,63.7,63.5,27.54,NNW,329,2.0,5.4,99,0.00,--,--,0.00,awk and wget,2013-07-04 05:10:00,
2013-07-04 01:15:00,63.6,63.4,27.54,NNW,329,1.1,5.4,99,0.00,--,--,0.00,awk and wget,2013-07-04 05:15:00,
2013-07-04 01:20:00,63.8,63.6,27.54,NNW,330,0.8,5.4,99,0.00,--,--,0.00,awk and wget,2013-07-04 05:20:00,
2013-07-04 01:30:00,63.7,63.5,27.54,NNW,328,3.6,6.5,99,0.00,--,--,0.00,awk and wget,2013-07-04 05:30:00,
2013-07-04 01:35:00,63.6,63.4,27.54,NNW,327,5.1,6.5,99,0.00,--,--,0.00,awk and wget,2013-07-04 05:35:00,
2013-07-04 01:40:00,63.5,63.4,27.54,NNW,329,2.7,6.6,99,0.00,--,--,0.00,awk and wget,2013-07-04 05:40:00,
2013-07-04 01:45:00,63.8,63.6,27.54,NNW,327,5.0,6.7,99,0.00,--,--,0.00,awk and wget,2013-07-04 05:45:00,
2013-07-04 01:50:00,63.7,63.6,27.53,NNW,332,5.6,7.5,99,0.00,--,--,0.00,awk and wget,2013-07-04 05:50:00,
2013-07-04 01:55:00,63.7,63.6,27.53,NNW,329,2.7,7.5,99,0.00,--,--,0.00,awk and wget,2013-07-04 05:55:00,
2013-07-04 02:00:00,63.7,63.6,27.54,NNW,330,2.8,7.5,99,0.00,--,--,0.00,awk and wget,2013-07-04 06:00:00,
2013-07-04 02:05:00,63.8,63.7,27.54,NNW,328,3.8,6.7,99,0.00,--,--,0.00,awk and wget,2013-07-04 06:05:00,
2013-07-04 02:10:00,63.9,63.9,27.54,NNW,327,3.6,5.1,99,0.00,--,--,0.00,awk and wget,2013-07-04 06:10:00,
2013-07-04 02:15:00,64.1,64.0,27.53,NNW,328,4.0,6.4,99,0.00,--,--,0.00,awk and wget,2013-07-04 06:15:00,
2013-07-04 02:20:00,64.3,64.2,27.53,NNW,328,2.2,6.7,99,0.00,--,--,0.00,awk and wget,2013-07-04 06:20:00,
2013-07-04 02:25:00,63.8,63.7,27.53,NNW,328,3.6,6.7,99,0.00,--,--,0.00,awk and wget,2013-07-04 06:25:00,
2013-07-04 02:30:00,63.8,63.7,27.53,NNW,328,3.9,6.7,99,0.00,--,--,0.00,awk and wget,2013-07-04 06:30:00,
2013-07-04 02:35:00,63.8,63.7,27.54,NNW,328,5.5,7.4,99,0.00,--,--,0.00,awk and wget,2013-07-04 06:35:00,
2013-07-04 02:40:00,63.8,63.7,27.53,NNW,329,1.7,7.4,99,0.00,--,--,0.00,awk and wget,2013-07-04 06:40:00,
2013-07-04 02:45:00,63.9,63.8,27.53,SSE,152,1.3,7.4,99,0.00,--,--,0.00,awk and wget,2013-07-04 06:45:00,
2013-07-04 02:50:00,63.8,63.7,27.53,NNW,332,0.6,6.8,99,0.00,--,--,0.00,awk and wget,2013-07-04 06:50:00,
2013-07-04 02:55:00,63.8,63.7,27.52,NNW,328,1.4,6.5,99,0.00,--,--,0.00,awk and wget,2013-07-04 06:55:00,
2013-07-04 03:00:00,63.8,63.7,27.53,NNW,332,3.3,5.7,99,0.00,--,--,0.00,awk and wget,2013-07-04 07:00:00,
2013-07-04 03:05:00,63.8,63.7,27.53,NNW,328,4.6,6.0,99,0.00,--,--,0.00,awk and wget,2013-07-04 07:05:00,
2013-07-04 03:10:00,63.7,63.7,27.52,NNW,330,3.1,6.8,99,0.00,--,--,0.00,awk and wget,2013-07-04 07:10:00,
2013-07-04 03:15:00,63.9,63.9,27.52,NNW,332,3.5,7.7,99,0.00,--,--,0.00,awk and wget,2013-07-04 07:15:00,
2013-07-04 03:20:00,63.8,63.7,27.52,NNW,328,3.8,7.7,99,0.00,--,--,0.00,awk and wget,2013-07-04 07:20:00,
2013-07-04 03:25:00,63.9,63.8,27.53,NNW,328,6.8,7.7,99,0.00,--,--,0.00,awk and wget,2013-07-04 07:25:00,
2013-07-04 03:30:00,63.9,63.8,27.53,NNW,332,6.5,7.0,99,0.00,--,--,0.00,awk and wget,2013-07-04 07:30:00,
2013-07-04 03:35:00,64.0,64.0,27.53,NNW,328,7.6,8.6,99,0.00,--,--,0.00,awk and wget,2013-07-04 07:35:00,
2013-07-04 03:40:00,64.4,64.3,27.53,NNW,333,10.4,10.4,99,0.00,--,--,0.00,awk and wget,2013-07-04 07:40:00,
2013-07-04 03:45:00,64.7,64.7,27.53,NNW,328,11.5,11.5,99,0.00,--,--,0.00,awk and wget,2013-07-04 07:45:00,
2013-07-04 03:50:00,64.8,64.7,27.53,NNW,328,9.1,9.1,99,0.00,--,--,0.00,awk and wget,2013-07-04 07:50:00,
2013-07-04 04:00:00,64.7,64.7,27.53,NNW,328,10.0,10.0,99,0.00,--,--,0.00,awk and wget,2013-07-04 08:00:00,
2013-07-04 04:10:00,64.5,64.4,27.54,NNW,328,7.4,8.8,99,0.00,--,--,0.00,awk and wget,2013-07-04 08:10:00,
2013-07-04 04:15:00,64.7,64.7,27.54,NNW,328,10.2,27.3,99,0.00,--,--,0.00,awk and wget,2013-07-04 08:15:00,
2013-07-04 04:20:00,65.1,65.1,27.54,NNW,328,7.2,27.3,99,0.00,--,--,0.00,awk and wget,2013-07-04 08:20:00,
2013-07-04 04:25:00,65.6,65.5,27.54,NNW,330,3.5,27.3,99,0.00,--,--,0.00,awk and wget,2013-07-04 08:25:00,
2013-07-04 04:30:00,65.6,65.5,27.54,NNW,328,2.2,10.5,99,0.00,--,--,0.00,awk and wget,2013-07-04 08:30:00,
2013-07-04 04:35:00,65.6,65.5,27.54,NNW,328,7.1,10.3,99,0.00,--,--,0.00,awk and wget,2013-07-04 08:35:00,
2013-07-04 04:40:00,65.8,65.7,27.54,NNW,330,3.5,9.5,99,0.00,--,--,0.00,awk and wget,2013-07-04 08:40:00,
2013-07-04 04:45:00,65.8,65.7,27.54,NNW,328,3.8,9.5,99,0.00,--,--,0.00,awk and wget,2013-07-04 08:45:00,
2013-07-04 04:50:00,65.8,65.6,27.54,NNW,328,4.3,9.5,99,0.00,--,--,0.00,awk and wget,2013-07-04 08:50:00,
2013-07-04 04:55:00,66.0,65.7,27.54,NNW,328,7.6,9.5,99,0.00,--,--,0.00,awk and wget,2013-07-04 08:55:00,
2013-07-04 05:00:00,66.0,65.7,27.54,NNW,327,8.0,10.8,98,0.00,--,--,0.00,awk and wget,2013-07-04 09:00:00,
2013-07-04 05:05:00,65.9,65.5,27.54,NNW,328,9.8,11.8,98,0.00,--,--,0.00,awk and wget,2013-07-04 09:05:00,
2013-07-04 05:10:00,65.9,65.4,27.54,NNW,328,1.4,11.8,98,0.00,--,--,0.00,awk and wget,2013-07-04 09:10:00,
2013-07-04 05:15:00,65.9,65.4,27.54,NNW,328,5.0,11.8,98,0.00,--,--,0.00,awk and wget,2013-07-04 09:15:00,
2013-07-04 05:20:00,65.9,65.3,27.54,NNW,331,1.9,9.4,98,0.00,--,--,0.00,awk and wget,2013-07-04 09:20:00,
2013-07-04 05:25:00,65.9,65.3,27.54,NNW,329,3.1,9.4,97,0.00,--,--,0.00,awk and wget,2013-07-04 09:25:00,
2013-07-04 05:30:00,65.8,65.1,27.54,NNW,328,4.0,9.4,97,0.00,--,--,0.00,awk and wget,2013-07-04 09:30:00,
2013-07-04 05:35:00,65.5,64.8,27.54,NNW,328,3.6,8.6,97,0.00,--,--,0.00,awk and wget,2013-07-04 09:35:00,
2013-07-04 05:40:00,65.4,64.8,27.54,NNW,328,1.7,8.6,97,0.00,--,--,0.00,awk and wget,2013-07-04 09:40:00,
2013-07-04 05:50:00,65.3,64.7,27.54,SSE,155,1.0,5.5,98,0.00,--,--,0.00,awk and wget,2013-07-04 09:50:00,
2013-07-04 05:55:00,65.6,65.1,27.54,NNW,331,2.8,24.4,98,0.00,--,--,0.00,awk and wget,2013-07-04 09:55:00,
2013-07-04 06:00:00,66.0,65.5,27.55,NNW,331,2.9,24.4,98,0.00,--,--,0.00,awk and wget,2013-07-04 10:00:00,
2013-07-04 06:05:00,66.0,65.4,27.55,NNW,330,1.5,24.4,98,0.00,--,--,0.00,awk and wget,2013-07-04 10:05:00,
2013-07-04 06:10:00,65.4,64.8,27.55,NNW,330,1.4,8.5,97,0.00,--,--,0.00,awk and wget,2013-07-04 10:10:00,
2013-07-04 06:20:00,65.3,64.7,27.55,NNW,332,1.1,5.7,97,0.00,--,--,0.00,awk and wget,2013-07-04 10:20:00,
2013-07-04 06:25:00,65.3,64.7,27.55,NNW,329,1.3,5.7,98,0.00,--,--,0.00,awk and wget,2013-07-04 10:25:00,
2013-07-04 06:30:00,65.3,64.8,27.56,NNW,332,3.3,4.7,98,0.00,--,--,0.00,awk and wget,2013-07-04 10:30:00,
2013-07-04 06:35:00,65.4,64.9,27.56,NNW,328,1.9,4.4,98,0.00,--,--,0.00,awk and wget,2013-07-04 10:35:00,
2013-07-04 06:40:00,65.5,65.0,27.56,NNW,330,1.2,4.1,98,0.00,--,--,0.00,awk and wget,2013-07-04 10:40:00,
2013-07-04 06:45:00,65.7,65.2,27.56,NNW,332,1.4,5.1,98,0.00,--,--,0.00,awk and wget,2013-07-04 10:45:00,
2013-07-04 06:50:00,65.9,65.4,27.56,NNW,331,1.5,6.1,98,0.00,--,--,0.00,awk and wget,2013-07-04 10:50:00,
2013-07-04 06:55:00,66.0,65.5,27.56,NNW,331,1.1,6.9,98,0.00,--,--,0.00,awk and wget,2013-07-04 10:55:00,
2013-07-04 07:00:00,66.1,65.6,27.57,NNW,329,1.7,6.9,98,0.00,--,--,0.00,awk and wget,2013-07-04 11:00:00,
2013-07-04 07:05:00,66.2,65.6,27.57,NNW,328,0.9,6.9,97,0.00,--,--,0.00,awk and wget,2013-07-04 11:05:00,
2013-07-04 07:10:00,66.2,65.6,27.57,NNW,328,1.8,6.4,97,0.00,--,--,0.00,awk and wget,2013-07-04 11:10:00,
2013-07-04 07:15:00,66.1,65.4,27.57,NNW,332,2.3,6.0,97,0.00,--,--,0.00,awk and wget,2013-07-04 11:15:00,
2013-07-04 07:20:00,66.1,65.5,27.57,NNW,327,4.5,5.4,97,0.00,--,--,0.00,awk and wget,2013-07-04 11:20:00,
2013-07-04 07:25:00,66.3,65.7,27.57,NNW,329,0.6,5.4,98,0.00,--,--,0.00,awk and wget,2013-07-04 11:25:00,
2013-07-04 07:30:00,66.5,66.0,27.57,NNW,333,1.1,5.4,98,0.00,--,--,0.00,awk and wget,2013-07-04 11:30:00,
2013-07-04 07:35:00,66.8,66.2,27.57,NNW,328,2.6,6.0,98,0.00,--,--,0.00,awk and wget,2013-07-04 11:35:00,
2013-07-04 07:40:00,67.0,66.4,27.57,NNW,328,2.1,6.8,97,0.00,--,--,0.00,awk and wget,2013-07-04 11:40:00,
2013-07-04 07:45:00,67.1,66.3,27.57,NNW,327,4.0,6.8,97,0.00,--,--,0.00,awk and wget,2013-07-04 11:45:00,
2013-07-04 07:50:00,67.2,66.2,27.57,NNW,329,0.5,7.6,96,0.00,--,--,0.00,awk and wget,2013-07-04 11:50:00,
2013-07-04 07:55:00,67.2,66.2,27.57,NNW,328,2.2,7.6,96,0.00,--,--,0.00,awk and wget,2013-07-04 11:55:00,
2013-07-04 08:00:00,67.2,66.0,27.58,NNW,328,5.0,7.6,95,0.00,--,--,0.00,awk and wget,2013-07-04 12:00:00,
2013-07-04 08:05:00,67.1,65.8,27.58,NNW,329,2.2,7.1,95,0.00,--,--,0.00,awk and wget,2013-07-04 12:05:00,
2013-07-04 08:10:00,67.2,66.0,27.58,NNW,332,4.7,7.1,95,0.00,--,--,0.00,awk and wget,2013-07-04 12:10:00,
2013-07-04 08:15:00,67.4,66.1,27.58,NNW,327,3.7,6.5,95,0.00,--,--,0.00,awk and wget,2013-07-04 12:15:00,
2013-07-04 08:20:00,67.6,66.3,27.58,NNW,330,2.6,7.4,95,0.00,--,--,0.00,awk and wget,2013-07-04 12:20:00,
2013-07-04 08:25:00,67.6,66.2,27.58,NNW,329,1.6,7.4,95,0.00,--,--,0.00,awk and wget,2013-07-04 12:25:00,
2013-07-04 08:30:00,67.8,66.4,27.58,NNW,328,1.9,7.9,95,0.00,--,--,0.00,awk and wget,2013-07-04 12:30:00,
2013-07-04 08:40:00,67.7,66.3,27.58,NNW,330,0.9,9.1,95,0.00,--,--,0.00,awk and wget,2013-07-04 12:40:00,
2013-07-04 08:45:00,68.0,66.5,27.58,NNW,328,4.2,9.1,94,0.00,--,--,0.00,awk and wget,2013-07-04 12:45:00,
2013-07-04 08:50:00,68.0,66.4,27.58,NNW,330,4.8,10.8,94,0.00,--,--,0.00,awk and wget,2013-07-04 12:50:00,
2013-07-04 08:55:00,67.9,66.2,27.58,NNW,330,4.1,10.8,94,0.00,--,--,0.00,awk and wget,2013-07-04 12:55:00,
2013-07-04 09:00:00,68.1,66.4,27.58,NNW,331,4.2,10.8,94,0.00,--,--,0.00,awk and wget,2013-07-04 13:00:00,
2013-07-04 09:05:00,68.6,67.0,27.58,SE,127,1.9,10.3,94,0.00,--,--,0.00,awk and wget,2013-07-04 13:05:00,
2013-07-04 09:10:00,68.2,66.2,27.58,NNW,329,4.2,11.1,93,0.00,--,--,0.00,awk and wget,2013-07-04 13:10:00,
2013-07-04 09:15:00,68.2,66.2,27.58,NNW,328,2.9,12.5,93,0.00,--,--,0.00,awk and wget,2013-07-04 13:15:00,
2013-07-04 09:20:00,69.3,67.1,27.58,NNW,330,4.0,12.5,92,0.00,--,--,0.00,awk and wget,2013-07-04 13:20:00,
2013-07-04 09:25:00,69.8,66.8,27.58,NE,53,4.2,12.5,89,0.00,--,--,0.00,awk and wget,2013-07-04 13:25:00,
2013-07-04 09:30:00,70.1,66.2,27.58,NNW,328,5.0,12.4,87,0.00,--,--,0.00,awk and wget,2013-07-04 13:30:00,
2013-07-04 09:40:00,71.2,66.3,27.58,NNW,329,6.6,14.8,84,0.00,--,--,0.00,awk and wget,2013-07-04 13:40:00,
2013-07-04 09:45:00,71.4,66.4,27.58,NNW,327,1.3,14.8,84,0.00,--,--,0.00,awk and wget,2013-07-04 13:45:00,
2013-07-04 09:50:00,71.6,66.1,27.58,SE,131,7.2,13.7,83,0.00,--,--,0.00,awk and wget,2013-07-04 13:50:00,
2013-07-04 09:55:00,71.3,65.5,27.58,NNW,330,7.0,13.5,81,0.00,--,--,0.00,awk and wget,2013-07-04 13:55:00,
2013-07-04 10:00:00,71.9,65.8,27.58,NNW,327,1.4,12.3,81,0.00,--,--,0.00,awk and wget,2013-07-04 14:00:00,
2013-07-04 10:10:00,72.2,66.3,27.57,SE,140,5.1,14.3,81,0.00,--,--,0.00,awk and wget,2013-07-04 14:10:00,
2013-07-04 10:15:00,72.5,66.4,27.57,ENE,67,5.7,14.3,81,0.00,--,--,0.00,awk and wget,2013-07-04 14:15:00,
2013-07-04 10:20:00,72.2,66.0,27.57,NNE,27,4.0,13.1,80,0.00,--,--,0.00,awk and wget,2013-07-04 14:20:00,
2013-07-04 10:25:00,72.5,66.3,27.57,NNW,344,6.4,13.1,80,0.00,--,--,0.00,awk and wget,2013-07-04 14:25:00,
2013-07-04 10:30:00,72.2,66.5,27.57,NNW,327,7.2,15.7,82,0.00,--,--,0.00,awk and wget,2013-07-04 14:30:00,
2013-07-04 10:35:00,73.5,67.9,27.57,NW,325,4.2,15.7,82,0.00,--,--,0.00,awk and wget,2013-07-04 14:35:00,
2013-07-04 10:40:00,72.7,65.8,27.57,NNW,328,4.9,15.7,78,0.00,--,--,0.00,awk and wget,2013-07-04 14:40:00,
2013-07-04 10:45:00,73.5,66.4,27.56,NW,326,10.9,15.7,78,0.00,--,--,0.00,awk and wget,2013-07-04 14:45:00,
2013-07-04 10:50:00,74.3,66.8,27.56,NW,324,13.4,15.7,77,0.00,--,--,0.00,awk and wget,2013-07-04 14:50:00,
2013-07-04 10:55:00,73.7,66.1,27.56,NW,324,7.4,14.6,77,0.00,--,--,0.00,awk and wget,2013-07-04 14:55:00,
2013-07-04 11:00:00,73.5,66.5,27.56,NW,325,8.3,14.6,78,0.00,--,--,0.00,awk and wget,2013-07-04 15:00:00,
2013-07-04 11:06:00,75.1,68.2,27.56,NNW,332,7.2,13.8,79,0.00,--,--,0.00,awk and wget,2013-07-04 15:06:00,
2013-07-04 11:15:00,74.5,65.6,27.56,ESE,117,8.1,16.8,73,0.00,--,--,0.00,awk and wget,2013-07-04 15:15:00,
2013-07-04 11:20:00,74.6,65.5,27.56,SE,144,3.9,16.8,73,0.00,--,--,0.00,awk and wget,2013-07-04 15:20:00,
2013-07-04 11:25:00,75.4,66.4,27.56,NW,324,6.7,16.1,73,0.00,--,--,0.00,awk and wget,2013-07-04 15:25:00,
2013-07-04 11:30:00,75.1,65.3,27.56,NW,323,4.4,16.6,71,0.00,--,--,0.00,awk and wget,2013-07-04 15:30:00,
2013-07-04 11:35:00,75.5,66.1,27.56,NW,323,18.1,18.1,72,0.00,--,--,0.00,awk and wget,2013-07-04 15:35:00,
2013-07-04 11:40:00,74.9,66.0,27.56,NW,324,12.1,16.6,73,0.00,--,--,0.00,awk and wget,2013-07-04 15:40:00,
2013-07-04 11:45:00,74.5,66.1,27.56,NW,325,16.3,31.0,74,0.00,--,--,0.00,awk and wget,2013-07-04 15:45:00,
2013-07-04 11:50:00,75.2,66.3,27.56,NW,323,22.8,31.0,73,0.00,--,--,0.00,awk and wget,2013-07-04 15:50:00,
2013-07-04 11:55:00,75.2,66.4,27.56,NW,324,8.5,31.0,74,0.00,--,--,0.00,awk and wget,2013-07-04 15:55:00,
2013-07-04 12:00:00,74.2,66.2,27.56,NW,326,8.4,18.1,76,0.00,--,--,0.00,awk and wget,2013-07-04 16:00:00,
2013-07-04 12:05:00,75.4,65.9,27.56,NW,324,6.3,15.1,72,0.00,--,--,0.00,awk and wget,2013-07-04 16:05:00,
2013-07-04 12:10:00,76.9,68.0,27.56,NW,324,6.5,16.2,74,0.00,--,--,0.00,awk and wget,2013-07-04 16:10:00,
2013-07-04 12:15:00,76.0,64.7,27.56,NW,326,3.7,16.2,67,0.00,--,--,0.00,awk and wget,2013-07-04 16:15:00,
2013-07-04 12:20:00,77.0,66.2,27.56,SE,143,6.2,18.1,69,0.00,--,--,0.00,awk and wget,2013-07-04 16:20:00,
2013-07-04 12:25:00,76.8,65.7,27.56,NNW,327,3.4,22.3,68,0.00,--,--,0.00,awk and wget,2013-07-04 16:25:00,
2013-07-04 12:30:00,75.9,66.0,27.56,NW,325,11.2,22.3,71,0.00,--,--,0.00,awk and wget,2013-07-04 16:30:00,
2013-07-04 12:35:00,75.2,65.3,27.56,NW,326,9.2,22.3,71,0.00,--,--,0.00,awk and wget,2013-07-04 16:35:00,
2013-07-04 12:40:00,75.7,65.4,27.56,NNW,327,6.3,19.2,70,0.00,--,--,0.00,awk and wget,2013-07-04 16:40:00,
2013-07-04 12:45:00,77.3,66.5,27.56,NW,324,5.2,18.1,69,0.00,--,--,0.00,awk and wget,2013-07-04 16:45:00,
2013-07-04 12:50:00,77.5,67.3,27.56,NW,324,3.9,18.1,70,0.00,--,--,0.00,awk and wget,2013-07-04 16:50:00,
2013-07-04 12:55:00,76.1,65.5,27.56,NW,324,9.2,18.1,69,0.00,--,--,0.00,awk and wget,2013-07-04 16:55:00,
2013-07-04 13:00:00,77.8,65.9,27.56,NW,324,11.5,15.9,66,0.00,--,--,0.00,awk and wget,2013-07-04 17:00:00,
2013-07-04 13:05:00,77.2,66.1,27.56,NW,325,10.1,20.3,68,0.00,--,--,0.00,awk and wget,2013-07-04 17:05:00,
2013-07-04 13:10:00,77.3,66.1,27.56,NNW,327,3.2,20.3,68,0.00,--,--,0.00,awk and wget,2013-07-04 17:10:00,
2013-07-04 13:15:00,76.5,65.1,27.56,NNW,327,10.1,20.3,67,0.00,--,--,0.00,awk and wget,2013-07-04 17:15:00,
2013-07-04 13:20:00,77.0,65.8,27.56,NW,323,13.1,17.2,68,0.00,--,--,0.00,awk and wget,2013-07-04 17:20:00,
2013-07-04 13:30:00,77.3,65.4,27.55,SSE,153,8.6,18.9,66,0.00,--,--,0.00,awk and wget,2013-07-04 17:30:00,
2013-07-04 13:35:00,77.1,65.1,27.55,NW,326,8.4,18.9,66,0.00,--,--,0.00,awk and wget,2013-07-04 17:35:00,
2013-07-04 13:40:00,77.5,66.7,27.55,North,10,9.0,18.1,69,0.00,--,--,0.00,awk and wget,2013-07-04 17:40:00,
2013-07-04 13:45:00,76.4,65.5,27.55,NW,324,7.4,19.0,68,0.00,--,--,0.00,awk and wget,2013-07-04 17:45:00,
2013-07-04 13:50:00,75.7,65.5,27.55,NW,325,8.1,19.0,70,0.00,--,--,0.00,awk and wget,2013-07-04 17:50:00,
2013-07-04 13:55:00,75.4,65.6,27.55,NW,323,5.0,19.0,71,0.00,--,--,0.00,awk and wget,2013-07-04 17:55:00,
2013-07-04 14:00:00,75.0,65.5,27.55,NW,323,7.3,18.9,72,0.00,--,--,0.00,awk and wget,2013-07-04 18:00:00,
2013-07-04 14:05:00,74.8,66.3,27.55,NW,323,8.6,16.4,74,0.00,--,--,0.00,awk and wget,2013-07-04 18:05:00,
2013-07-04 14:10:00,74.4,66.2,27.55,NW,324,6.6,15.0,75,0.00,--,--,0.00,awk and wget,2013-07-04 18:10:00,
2013-07-04 14:15:00,74.0,67.4,27.56,NW,325,3.1,13.4,79,0.00,--,--,0.00,awk and wget,2013-07-04 18:15:00,
2013-07-04 14:20:00,74.5,67.4,27.55,NW,323,15.8,16.8,78,0.00,--,--,0.00,awk and wget,2013-07-04 18:20:00,
2013-07-04 14:30:00,76.4,68.7,27.55,NW,324,3.5,16.8,77,0.00,--,--,0.00,awk and wget,2013-07-04 18:30:00,
2013-07-04 14:35:00,75.9,67.5,27.55,NNW,328,6.2,16.0,75,0.00,--,--,0.00,awk and wget,2013-07-04 18:35:00,
2013-07-04 14:40:00,75.7,67.1,27.55,NW,323,13.6,16.0,74,0.00,--,--,0.00,awk and wget,2013-07-04 18:40:00,
2013-07-04 14:45:00,76.9,67.9,27.55,NW,323,9.1,15.1,73,0.00,--,--,0.00,awk and wget,2013-07-04 18:45:00,
2013-07-04 14:50:00,77.4,67.0,27.55,NW,325,7.5,14.7,70,0.00,--,--,0.00,awk and wget,2013-07-04 18:50:00,
2013-07-04 14:55:00,77.4,66.7,27.55,NNW,327,4.1,15.7,69,0.00,--,--,0.00,awk and wget,2013-07-04 18:55:00,
2013-07-04 15:00:00,75.7,67.5,27.54,NNW,328,6.3,29.1,75,0.00,--,--,0.00,awk and wget,2013-07-04 19:00:00,
2013-07-04 15:05:00,75.2,66.4,27.54,NW,326,14.7,29.1,74,0.00,--,--,0.00,awk and wget,2013-07-04 19:05:00,
2013-07-04 15:10:00,75.2,66.4,27.54,NW,326,6.4,29.1,74,0.00,--,--,0.00,awk and wget,2013-07-04 19:10:00,
2013-07-04 15:15:00,75.2,66.4,27.54,NNW,327,7.5,14.0,74,0.00,--,--,0.00,awk and wget,2013-07-04 19:15:00,
2013-07-04 15:20:00,75.4,67.3,27.54,NW,323,11.3,14.0,76,0.00,--,--,0.00,awk and wget,2013-07-04 19:20:00,
2013-07-04 15:25:00,76.0,65.6,27.54,NW,323,8.2,13.7,70,0.00,--,--,0.00,awk and wget,2013-07-04 19:25:00,
2013-07-04 15:30:00,76.3,65.6,27.54,NW,324,6.2,15.8,69,0.00,--,--,0.00,awk and wget,2013-07-04 19:30:00,
2013-07-04 15:35:00,77.4,66.8,27.54,NW,324,13.8,15.8,69,0.00,--,--,0.00,awk and wget,2013-07-04 19:35:00,
2013-07-04 15:40:00,78.4,65.9,27.54,NW,325,6.3,15.8,65,0.00,--,--,0.00,awk and wget,2013-07-04 19:40:00,
2013-07-04 15:50:00,76.6,64.7,27.54,NW,325,11.9,17.8,66,0.00,--,--,0.00,awk and wget,2013-07-04 19:50:00,
2013-07-04 15:55:00,77.8,66.0,27.53,NNW,327,4.4,17.8,67,0.00,--,--,0.00,awk and wget,2013-07-04 19:55:00,
2013-07-04 16:00:00,78.1,66.2,27.53,NW,323,4.5,16.1,66,0.00,--,--,0.00,awk and wget,2013-07-04 20:00:00,
2013-07-04 16:05:00,77.2,65.8,27.53,NNW,327,7.1,15.6,67,0.00,--,--,0.00,awk and wget,2013-07-04 20:05:00,
2013-07-04 16:10:00,77.7,65.5,27.52,NW,324,4.5,14.8,66,0.00,--,--,0.00,awk and wget,2013-07-04 20:10:00,
2013-07-04 16:15:00,76.6,64.9,27.52,NW,324,6.6,19.7,67,0.00,--,--,0.00,awk and wget,2013-07-04 20:15:00,
2013-07-04 16:20:00,76.3,64.8,27.52,NW,324,4.6,19.7,67,0.00,--,--,0.00,awk and wget,2013-07-04 20:20:00,
2013-07-04 16:25:00,77.2,65.5,27.52,NW,326,7.5,19.7,67,0.00,--,--,0.00,awk and wget,2013-07-04 20:25:00,
2013-07-04 16:30:00,78.9,65.8,27.52,NW,326,8.1,17.5,64,0.00,--,--,0.00,awk and wget,2013-07-04 20:30:00,
2013-07-04 16:35:00,77.7,66.3,27.52,NW,325,7.9,17.3,68,0.00,--,--,0.00,awk and wget,2013-07-04 20:35:00,
2013-07-04 16:40:00,76.7,65.9,27.51,SE,139,5.4,17.8,69,0.00,--,--,0.00,awk and wget,2013-07-04 20:40:00,
2013-07-04 16:45:00,76.3,64.9,27.51,NW,326,6.7,17.8,67,0.00,--,--,0.00,awk and wget,2013-07-04 20:45:00,
2013-07-04 16:50:00,77.9,65.6,27.51,NW,323,13.3,21.0,65,0.00,--,--,0.00,awk and wget,2013-07-04 20:50:00,
2013-07-04 17:00:00,78.8,64.6,27.50,NW,324,5.7,21.0,61,0.00,--,--,0.00,awk and wget,2013-07-04 21:00:00,
2013-07-04 17:05:00,78.5,64.2,27.51,NW,324,3.9,20.3,61,0.00,--,--,0.00,awk and wget,2013-07-04 21:05:00,
2013-07-04 17:10:00,78.7,64.6,27.50,SE,136,6.3,20.0,62,0.00,--,--,0.00,awk and wget,2013-07-04 21:10:00,
2013-07-04 17:20:00,76.9,64.0,27.51,NW,326,7.8,20.8,64,0.00,--,--,0.00,awk and wget,2013-07-04 21:20:00,
2013-07-04 17:30:00,77.5,64.3,27.51,NNE,22,15.4,21.9,63,0.00,--,--,0.00,awk and wget,2013-07-04 21:30:00,
2013-07-04 17:35:00,77.3,64.3,27.51,NW,326,8.2,21.9,64,0.00,--,--,0.00,awk and wget,2013-07-04 21:35:00,
2013-07-04 17:40:00,76.8,64.7,27.51,NW,324,9.1,18.0,66,0.00,--,--,0.00,awk and wget,2013-07-04 21:40:00,
2013-07-04 17:45:00,76.6,64.4,27.51,NW,323,4.6,18.0,65,0.00,--,--,0.00,awk and wget,2013-07-04 21:45:00,
2013-07-04 17:50:00,77.0,65.0,27.51,NW,324,6.3,15.6,66,0.00,--,--,0.00,awk and wget,2013-07-04 21:50:00,
2013-07-04 17:55:00,77.8,65.0,27.51,NW,324,6.5,18.1,64,0.00,--,--,0.00,awk and wget,2013-07-04 21:55:00,
2013-07-04 18:00:00,76.7,64.8,27.51,NW,324,7.6,20.3,66,0.00,--,--,0.00,awk and wget,2013-07-04 22:00:00,
2013-07-04 18:10:00,76.6,64.6,27.52,NW,325,5.6,20.3,66,0.00,--,--,0.00,awk and wget,2013-07-04 22:10:00,
2013-07-04 18:15:00,77.0,65.0,27.52,NW,326,2.3,16.8,66,0.00,--,--,0.00,awk and wget,2013-07-04 22:15:00,
2013-07-04 18:20:00,77.8,64.1,27.51,NW,324,6.1,18.4,62,0.00,--,--,0.00,awk and wget,2013-07-04 22:20:00,
2013-07-04 18:30:00,78.3,64.7,27.51,NW,323,4.5,18.5,63,0.00,--,--,0.00,awk and wget,2013-07-04 22:30:00,
2013-07-04 18:35:00,77.7,64.3,27.51,NW,323,4.3,18.5,63,0.00,--,--,0.00,awk and wget,2013-07-04 22:35:00,
2013-07-04 18:40:00,77.1,64.1,27.52,NNW,327,8.1,19.2,64,0.00,--,--,0.00,awk and wget,2013-07-04 22:40:00,
2013-07-04 18:45:00,77.3,63.6,27.52,NNW,327,7.7,19.2,62,0.00,--,--,0.00,awk and wget,2013-07-04 22:45:00,
2013-07-04 18:50:00,76.9,62.8,27.52,NW,324,10.6,23.4,61,0.00,--,--,0.00,awk and wget,2013-07-04 22:50:00,
2013-07-04 19:00:00,76.1,63.0,27.52,NNW,327,4.9,30.7,63,0.00,--,--,0.00,awk and wget,2013-07-04 23:00:00,
2013-07-04 19:05:00,76.7,62.9,27.52,NW,323,2.6,30.7,62,0.00,--,--,0.00,awk and wget,2013-07-04 23:05:00,
2013-07-04 19:10:00,77.0,63.6,27.52,NW,325,6.0,30.7,63,0.00,--,--,0.00,awk and wget,2013-07-04 23:10:00,
2013-07-04 19:15:00,76.9,63.5,27.52,NNW,327,13.5,17.3,63,0.00,--,--,0.00,awk and wget,2013-07-04 23:15:00,
2013-07-04 19:20:00,76.4,63.3,27.52,NW,325,6.5,14.7,63,0.00,--,--,0.00,awk and wget,2013-07-04 23:20:00,
2013-07-04 19:25:00,76.2,63.9,27.52,NNW,334,9.1,25.7,65,0.00,--,--,0.00,awk and wget,2013-07-04 23:25:00,
2013-07-04 19:30:00,76.3,63.6,27.52,NW,325,5.8,25.7,64,0.00,--,--,0.00,awk and wget,2013-07-04 23:30:00,
2013-07-04 19:35:00,75.8,63.9,27.53,NNW,327,4.2,25.7,66,0.00,--,--,0.00,awk and wget,2013-07-04 23:35:00,
2013-07-04 19:40:00,75.2,64.4,27.53,NW,323,9.4,17.3,69,0.00,--,--,0.00,awk and wget,2013-07-04 23:40:00,
2013-07-04 19:45:00,75.0,64.5,27.53,NW,324,4.7,17.3,69,0.00,--,--,0.00,awk and wget,2013-07-04 23:45:00,
2013-07-04 19:50:00,75.2,64.3,27.53,NW,325,4.6,15.7,68,0.00,--,--,0.00,awk and wget,2013-07-04 23:50:00,
2013-07-04 19:55:00,75.3,64.6,27.53,SE,127,6.2,15.7,69,0.00,--,--,0.00,awk and wget,2013-07-04 23:55:00,
2013-07-04 20:00:00,74.7,65.1,27.53,SSE,151,5.7,14.9,72,0.00,--,--,0.00,awk and wget,2013-07-05 00:00:00,
2013-07-04 20:05:00,74.0,65.0,27.53,ESE,123,6.7,14.0,73,0.00,--,--,0.00,awk and wget,2013-07-05 00:05:00,
2013-07-04 20:10:00,73.4,64.8,27.54,NNE,29,4.1,14.0,74,0.00,--,--,0.00,awk and wget,2013-07-05 00:10:00,
2013-07-04 20:15:00,73.4,64.7,27.54,SSE,150,9.9,17.6,74,0.00,--,--,0.00,awk and wget,2013-07-05 00:15:00,
2013-07-04 20:20:00,73.3,64.5,27.55,NNE,30,5.7,17.6,73,0.00,--,--,0.00,awk and wget,2013-07-05 00:20:00,
2013-07-04 20:30:00,72.3,64.4,27.55,NNW,327,8.2,18.8,76,0.00,--,--,0.00,awk and wget,2013-07-05 00:30:00,
2013-07-04 20:35:00,71.8,64.5,27.55,NW,325,4.9,18.8,77,0.00,--,--,0.00,awk and wget,2013-07-05 00:35:00,
2013-07-04 20:40:00,71.9,64.6,27.55,NW,325,4.3,16.8,77,0.00,--,--,0.00,awk and wget,2013-07-05 00:40:00,
2013-07-04 20:45:00,71.7,64.5,27.55,NW,326,6.5,16.7,78,0.00,--,--,0.00,awk and wget,2013-07-05 00:45:00,
2013-07-04 20:50:00,71.6,64.7,27.54,NW,326,4.7,16.7,78,0.00,--,--,0.00,awk and wget,2013-07-05 00:50:00,
2013-07-04 20:55:00,71.3,64.7,27.54,NNW,328,1.9,16.7,79,0.00,--,--,0.00,awk and wget,2013-07-05 00:55:00,
2013-07-04 21:00:00,71.2,64.8,27.54,NNW,329,8.7,13.5,80,0.00,--,--,0.00,awk and wget,2013-07-05 01:00:00,
2013-07-04 21:05:00,71.2,64.8,27.54,NNW,328,3.9,10.8,80,0.00,--,--,0.00,awk and wget,2013-07-05 01:05:00,
2013-07-04 21:10:00,71.1,65.0,27.55,NNW,327,5.2,10.8,81,0.00,--,--,0.00,awk and wget,2013-07-05 01:10:00,
2013-07-04 21:15:00,71.2,65.0,27.55,NNW,327,3.5,10.9,81,0.00,--,--,0.00,awk and wget,2013-07-05 01:15:00,
2013-07-04 21:20:00,71.2,65.1,27.54,NNW,328,4.1,10.9,80,0.00,--,--,0.00,awk and wget,2013-07-05 01:20:00,
2013-07-04 21:25:00,71.2,65.0,27.54,NNW,329,4.1,10.9,80,0.00,--,--,0.00,awk and wget,2013-07-05 01:25:00,
2013-07-04 21:30:00,70.9,65.1,27.54,SSE,155,1.8,10.6,81,0.00,--,--,0.00,awk and wget,2013-07-05 01:30:00,
2013-07-04 21:35:00,70.7,65.0,27.54,NNW,327,4.6,9.4,82,0.00,--,--,0.00,awk and wget,2013-07-05 01:35:00,
2013-07-04 21:40:00,70.0,65.1,27.54,NW,325,8.1,9.4,84,0.00,--,--,0.00,awk and wget,2013-07-05 01:40:00,
2013-07-04 21:45:00,69.8,65.1,27.54,NNW,330,4.4,10.0,85,0.00,--,--,0.00,awk and wget,2013-07-05 01:45:00,
2013-07-04 21:50:00,69.6,64.7,27.54,NNW,328,2.9,10.7,84,0.00,--,--,0.00,awk and wget,2013-07-05 01:50:00,
2013-07-04 21:55:00,69.7,64.9,27.54,NW,325,2.5,10.7,84,0.00,--,--,0.00,awk and wget,2013-07-05 01:55:00,
2013-07-04 22:00:00,69.8,65.2,27.54,NNW,329,5.0,10.7,85,0.00,--,--,0.00,awk and wget,2013-07-05 02:00:00,
2013-07-04 22:10:00,70.0,65.1,27.54,NNW,327,5.5,11.1,84,0.00,--,--,0.00,awk and wget,2013-07-05 02:10:00,
2013-07-04 22:20:00,69.5,65.0,27.54,NW,326,6.0,11.3,85,0.00,--,--,0.00,awk and wget,2013-07-05 02:20:00,
2013-07-04 22:25:00,68.4,64.9,27.54,NW,326,9.6,11.3,88,0.00,--,--,0.00,awk and wget,2013-07-05 02:25:00,
2013-07-04 22:30:00,68.7,65.3,27.54,NW,326,6.2,11.3,88,0.00,--,--,0.00,awk and wget,2013-07-05 02:30:00,
2013-07-04 22:35:00,69.6,65.3,27.54,NW,326,4.7,12.0,86,0.00,--,--,0.00,awk and wget,2013-07-05 02:35:00,
2013-07-04 22:40:00,69.9,65.0,27.54,NNW,327,6.1,12.0,84,0.00,--,--,0.00,awk and wget,2013-07-05 02:40:00,
2013-07-04 22:45:00,69.8,65.0,27.54,NW,326,4.7,12.0,84,0.00,--,--,0.00,awk and wget,2013-07-05 02:45:00,
2013-07-04 22:50:00,69.8,65.1,27.54,NNW,327,2.9,11.9,84,0.00,--,--,0.00,awk and wget,2013-07-05 02:50:00,
2013-07-04 22:55:00,69.8,65.2,27.54,NW,326,4.9,11.9,85,0.00,--,--,0.00,awk and wget,2013-07-05 02:55:00,
2013-07-04 23:00:00,69.6,65.1,27.55,NNW,328,4.1,11.9,85,0.00,--,--,0.00,awk and wget,2013-07-05 03:00:00,
2013-07-04 23:05:00,69.4,65.2,27.55,NW,326,12.8,12.8,86,0.00,--,--,0.00,awk and wget,2013-07-05 03:05:00,
2013-07-04 23:10:00,69.5,65.3,27.55,NW,326,7.0,12.3,86,0.00,--,--,0.00,awk and wget,2013-07-05 03:10:00,
2013-07-04 23:15:00,69.7,65.2,27.55,NW,326,8.5,14.2,85,0.00,--,--,0.00,awk and wget,2013-07-05 03:15:00,
2013-07-04 23:20:00,70.1,65.4,27.55,NNW,327,9.1,14.2,85,0.00,--,--,0.00,awk and wget,2013-07-05 03:20:00,
2013-07-04 23:30:00,70.1,65.1,27.55,NW,326,3.7,15.3,84,0.00,--,--,0.00,awk and wget,2013-07-05 03:30:00,
2013-07-04 23:35:00,69.8,65.2,27.55,NW,326,10.8,15.3,85,0.00,--,--,0.00,awk and wget,2013-07-05 03:35:00,
2013-07-04 23:40:00,69.8,65.4,27.55,NW,326,8.2,15.3,85,0.00,--,--,0.00,awk and wget,2013-07-05 03:40:00,
2013-07-04 23:45:00,69.3,65.2,27.55,NW,326,9.3,13.4,86,0.00,--,--,0.00,awk and wget,2013-07-05 03:45:00,
2013-07-04 23:50:00,69.4,65.4,27.55,NNW,329,10.0,12.2,87,0.00,--,--,0.00,awk and wget,2013-07-05 03:50:00,
2013-07-04 23:55:00,69.5,65.4,27.55,NW,326,11.5,11.5,86,0.00,--,--,0.00,awk and wget,2013-07-05 03:55:00,